createdAt,value
2022-11-06T00:00:49.779Z,5.38
2022-11-06T00:03:20.150Z,5.43
2022-11-06T00:06:06.592Z,3.85
2022-11-06T00:08:37.481Z,4.13
2022-11-06T00:11:11.121Z,7.45
2022-11-06T00:13:41.099Z,3.08
2022-11-06T00:16:11.414Z,8.02
2022-11-06T00:18:42.954Z,4.90
2022-11-06T00:21:14.134Z,4.93
2022-11-06T00:23:44.125Z,6.93
2022-11-06T00:26:14.733Z,4.88
2022-11-06T00:28:44.314Z,10.73
2022-11-06T00:31:16.391Z,4.78
2022-11-06T00:33:47.240Z,13.98
2022-11-06T00:36:18.047Z,5.05
2022-11-06T00:38:47.632Z,6.18
2022-11-06T00:41:18.025Z,5.13
2022-11-06T00:43:49.969Z,7.10
2022-11-06T00:46:19.872Z,6.70
2022-11-06T00:48:50.334Z,6.15
2022-11-06T00:51:20.931Z,11.48
2022-11-06T00:53:54.545Z,4.53
2022-11-06T00:56:23.686Z,7.40
2022-11-06T00:58:52.897Z,4.68
2022-11-06T01:01:23.861Z,5.00
2022-11-06T01:03:55.929Z,8.80
2022-11-06T01:06:27.524Z,11.40
2022-11-06T01:08:56.961Z,4.45
2022-11-06T01:11:28.535Z,4.75
2022-11-06T01:14:02.108Z,15.02
2022-11-06T01:16:31.639Z,10.07
2022-11-06T01:19:02.886Z,5.55
2022-11-06T01:21:33.922Z,6.15
2022-11-06T01:24:05.241Z,5.38
2022-11-06T01:26:39.240Z,6.20
2022-11-06T01:29:14.477Z,6.90
2022-11-06T01:31:43.544Z,6.97
2022-11-06T01:34:14.636Z,9.65
2022-11-06T01:36:43.464Z,4.82
2022-11-06T01:39:14.376Z,6.80
2022-11-06T01:41:46.086Z,6.40
2022-11-06T01:44:52.198Z,7.45
2022-11-06T01:47:25.200Z,5.03
2022-11-06T01:49:59.072Z,7.18
2022-11-06T01:52:29.284Z,4.82
2022-11-06T01:55:04.964Z,12.18
2022-11-06T01:57:33.887Z,5.55
2022-11-06T02:00:03.516Z,3.80
2022-11-06T02:02:34.141Z,9.35
2022-11-06T02:05:05.680Z,6.95
2022-11-06T02:07:35.125Z,4.70
2022-11-06T02:10:04.927Z,9.15
2022-11-06T02:12:48.009Z,5.78
2022-11-06T02:15:27.351Z,6.10
2022-11-06T02:18:16.192Z,7.78
2022-11-06T02:21:00.215Z,7.15
2022-11-06T02:23:46.668Z,4.82
2022-11-06T02:26:31.805Z,6.50
2022-11-06T02:29:07.133Z,1.45
2022-11-06T02:34:10.495Z,5.97
2022-11-06T02:36:44.971Z,6.28
2022-11-06T02:39:20.000Z,7.13
2022-11-06T02:41:51.226Z,7.18
2022-11-06T02:44:26.172Z,8.50
2022-11-06T02:46:58.044Z,5.78
2022-11-06T02:49:35.543Z,8.50
2022-11-06T02:52:08.151Z,9.70
2022-11-06T02:54:42.157Z,9.30
2022-11-06T02:57:15.825Z,9.38
2022-11-06T02:59:52.275Z,7.13
2022-11-06T03:02:27.433Z,10.88
2022-11-06T03:05:03.458Z,7.38
2022-11-06T03:07:37.633Z,16.27
2022-11-06T03:10:08.240Z,9.32
2022-11-06T03:12:46.348Z,6.65
2022-11-06T03:15:23.726Z,19.27
2022-11-06T03:18:00.719Z,14.68
2022-11-06T03:20:36.219Z,4.95
2022-11-06T03:25:46.051Z,5.53
2022-11-06T03:28:25.233Z,5.55
2022-11-06T03:30:59.715Z,7.88
2022-11-06T03:33:35.116Z,4.17
2022-11-06T03:36:10.185Z,4.15
2022-11-06T03:38:43.028Z,5.45
2022-11-06T03:41:15.959Z,6.53
2022-11-06T03:43:48.923Z,6.10
2022-11-06T03:46:25.045Z,13.57
2022-11-06T03:48:57.813Z,5.93
2022-11-06T03:51:31.483Z,5.30
2022-11-06T03:54:03.812Z,11.20
2022-11-06T03:56:39.611Z,6.10
2022-11-06T03:59:10.454Z,6.35
2022-11-06T04:01:46.608Z,11.75
2022-11-06T04:04:22.965Z,10.18
2022-11-06T04:06:56.759Z,11.88
2022-11-06T04:09:48.168Z,9.50
2022-11-06T04:12:39.167Z,5.97
2022-11-06T04:15:13.129Z,7.47
2022-11-06T04:17:43.497Z,14.15
2022-11-06T04:20:38.090Z,7.55
2022-11-06T04:23:14.687Z,9.45
2022-11-06T04:26:12.276Z,7.80
2022-11-06T04:28:49.614Z,7.35
2022-11-06T04:31:29.293Z,6.38
2022-11-06T04:34:05.199Z,10.80
2022-11-06T04:36:43.602Z,8.18
2022-11-06T04:39:18.323Z,13.88
2022-11-06T04:41:55.453Z,16.92
2022-11-06T04:44:31.485Z,9.65
2022-11-06T04:47:03.239Z,17.60
2022-11-06T04:49:36.661Z,19.73
2022-11-06T04:52:09.607Z,12.43
2022-11-06T04:54:38.974Z,18.63
2022-11-06T04:57:08.429Z,17.65
2022-11-06T04:59:38.132Z,13.02
2022-11-06T05:02:07.661Z,15.95
2022-11-06T05:04:38.790Z,12.93
2022-11-06T05:07:07.775Z,20.67
2022-11-06T05:09:36.710Z,20.27
2022-11-06T05:12:05.991Z,9.25
2022-11-06T05:14:35.129Z,9.95
2022-11-06T05:17:04.070Z,9.60
2022-11-06T05:19:32.966Z,13.13
2022-11-06T05:22:20.924Z,9.20
2022-11-06T05:24:49.776Z,29.80
2022-11-06T05:27:18.606Z,21.27
2022-11-06T05:29:47.429Z,9.45
2022-11-06T05:32:16.199Z,8.43
2022-11-06T05:34:46.033Z,22.30
2022-11-06T05:37:16.224Z,12.50
2022-11-06T05:39:45.246Z,10.48
2022-11-06T05:42:14.063Z,8.65
2022-11-06T05:44:43.052Z,9.02
2022-11-06T05:47:11.894Z,8.38
2022-11-06T05:49:40.711Z,12.40
2022-11-06T05:52:09.749Z,5.05
2022-11-06T05:54:40.054Z,6.03
2022-11-06T05:57:08.996Z,8.23
2022-11-06T05:59:37.832Z,17.20
2022-11-06T06:02:06.770Z,7.35
2022-11-06T06:04:35.717Z,6.90
2022-11-06T06:07:04.601Z,12.77
2022-11-06T06:09:33.821Z,3.58
2022-11-06T06:12:04.251Z,4.03
2022-11-06T06:14:33.140Z,5.03
2022-11-06T06:17:02.134Z,16.55
2022-11-06T06:19:30.917Z,8.85
2022-11-06T06:21:59.969Z,7.60
2022-11-06T06:24:30.455Z,7.32
2022-11-06T06:26:59.416Z,6.55
2022-11-06T06:29:29.672Z,9.13
2022-11-06T06:31:58.539Z,8.85
2022-11-06T06:34:27.349Z,12.77
2022-11-06T06:36:56.117Z,14.20
2022-11-06T06:39:24.952Z,12.43
2022-11-06T06:41:53.799Z,10.25
2022-11-06T06:44:22.669Z,8.45
2022-11-06T06:46:52.901Z,11.98
2022-11-06T06:49:21.701Z,7.63
2022-11-06T06:51:50.728Z,7.97
2022-11-06T06:54:19.534Z,7.72
2022-11-06T06:56:49.467Z,18.88
2022-11-06T06:59:18.451Z,6.88
2022-11-06T07:01:48.332Z,8.38
2022-11-06T07:04:18.831Z,9.52
2022-11-06T07:06:47.777Z,8.38
2022-11-06T07:09:16.594Z,10.35
2022-11-06T07:11:45.426Z,6.75
2022-11-06T07:14:14.384Z,7.75
2022-11-06T07:16:43.416Z,8.90
2022-11-06T07:19:12.483Z,7.82
2022-11-06T07:21:43.015Z,10.30
2022-11-06T07:24:12.001Z,7.95
2022-11-06T07:26:40.807Z,6.80
2022-11-06T07:29:09.980Z,8.65
2022-11-06T07:31:38.807Z,7.63
2022-11-06T07:34:07.660Z,12.27
2022-11-06T07:36:37.244Z,10.90
2022-11-06T07:39:07.468Z,14.20
2022-11-06T07:41:36.295Z,9.00
2022-11-06T07:44:05.303Z,10.43
2022-11-06T07:46:34.117Z,10.98
2022-11-06T07:49:03.769Z,14.68
2022-11-06T07:51:33.475Z,12.82
2022-11-06T07:54:02.272Z,8.48
2022-11-06T07:56:32.808Z,10.55
2022-11-06T07:59:02.129Z,8.32
2022-11-06T08:01:31.127Z,11.77
2022-11-06T08:04:00.160Z,9.55
2022-11-06T08:06:29.700Z,13.80
2022-11-06T08:08:59.181Z,10.40
2022-11-06T08:11:28.756Z,11.48
2022-11-06T08:14:01.162Z,8.38
2022-11-06T08:16:30.028Z,8.98
2022-11-06T08:18:58.972Z,20.10
2022-11-06T08:21:27.800Z,8.25
2022-11-06T08:23:56.634Z,6.55
2022-11-06T08:26:25.503Z,10.80
2022-11-06T08:28:54.619Z,8.93
2022-11-06T08:31:25.184Z,7.65
2022-11-06T08:33:54.516Z,7.97
2022-11-06T08:36:23.385Z,8.35
2022-11-06T08:38:52.194Z,12.35
2022-11-06T08:41:20.985Z,8.70
2022-11-06T08:43:52.598Z,7.82
2022-11-06T08:46:21.378Z,8.57
2022-11-06T08:48:51.598Z,20.02
2022-11-06T08:51:20.559Z,8.07
2022-11-06T08:53:49.492Z,7.57
2022-11-06T08:56:18.523Z,9.25
2022-11-06T08:58:51.462Z,11.50
2022-11-06T09:01:24.489Z,9.48
2022-11-06T09:03:54.888Z,7.68
2022-11-06T09:06:23.782Z,9.60
2022-11-06T09:08:52.588Z,8.43
2022-11-06T09:11:21.509Z,7.68
2022-11-06T09:13:50.304Z,8.00
2022-11-06T09:16:19.168Z,6.53
2022-11-06T09:18:47.977Z,7.93
2022-11-06T09:21:18.205Z,16.25
2022-11-06T09:23:48.627Z,6.60
2022-11-06T09:26:17.706Z,7.93
2022-11-06T09:28:47.463Z,7.97
2022-11-06T09:31:16.387Z,10.32
2022-11-06T09:33:45.225Z,8.93
2022-11-06T09:36:14.112Z,8.25
2022-11-06T09:38:44.363Z,6.43
2022-11-06T09:41:20.091Z,7.97
2022-11-06T09:44:05.582Z,8.85
2022-11-06T09:46:40.241Z,11.25
2022-11-06T09:49:19.631Z,14.98
2022-11-06T09:51:53.939Z,12.00
2022-11-06T09:54:29.393Z,23.00
2022-11-06T09:57:06.007Z,14.15
2022-11-06T09:59:41.382Z,17.65
2022-11-06T10:02:25.219Z,16.77
2022-11-06T10:05:04.679Z,15.00
2022-11-06T10:07:37.384Z,8.60
2022-11-06T10:10:15.821Z,3.03
2022-11-06T10:13:02.061Z,2.13
2022-11-06T10:15:35.312Z,4.97
2022-11-06T10:18:14.418Z,3.03
2022-11-06T10:20:47.940Z,2.50
2022-11-06T10:23:22.317Z,2.92
2022-11-06T10:26:05.212Z,17.73
2022-11-06T10:28:56.886Z,22.27
2022-11-06T10:31:32.479Z,22.02
2022-11-06T10:34:05.453Z,9.55
2022-11-06T10:36:40.845Z,10.38
2022-11-06T10:39:16.711Z,15.18
2022-11-06T10:41:52.873Z,11.25
2022-11-06T10:44:26.390Z,6.95
2022-11-06T10:47:02.246Z,7.93
2022-11-06T10:49:38.098Z,7.75
2022-11-06T10:52:28.677Z,9.30
2022-11-06T10:55:11.498Z,11.48
2022-11-06T10:57:47.671Z,18.02
2022-11-06T11:00:17.652Z,8.10
2022-11-06T11:02:50.103Z,6.18
2022-11-06T11:05:22.423Z,6.22
2022-11-06T11:07:52.140Z,7.78
2022-11-06T11:10:29.573Z,8.27
2022-11-06T11:13:07.137Z,4.40
2022-11-06T11:15:45.113Z,10.25
2022-11-06T11:18:19.120Z,10.65
2022-11-06T11:20:49.818Z,9.27
2022-11-06T11:23:22.226Z,15.00
2022-11-06T11:25:53.600Z,4.68
2022-11-06T11:28:35.572Z,5.85
2022-11-06T11:31:08.775Z,9.25
2022-11-06T11:33:39.803Z,8.20
2022-11-06T11:36:11.104Z,8.07
2022-11-06T11:38:42.112Z,2.22
2022-11-06T11:41:14.741Z,7.38
2022-11-06T11:43:45.173Z,6.53
2022-11-06T11:46:21.331Z,16.75
2022-11-06T11:48:51.797Z,30.15
2022-11-06T11:51:31.758Z,11.40
2022-11-06T11:54:06.058Z,7.53
2022-11-06T11:57:03.090Z,10.45
2022-11-06T11:59:30.205Z,28.73
2022-11-06T12:02:05.052Z,9.68
2022-11-06T12:04:40.156Z,27.60
2022-11-06T12:07:16.340Z,5.00
2022-11-06T12:09:46.265Z,5.38
2022-11-06T12:12:23.147Z,5.18
2022-11-06T12:15:18.350Z,4.00
2022-11-06T12:17:54.208Z,5.72
2022-11-06T12:20:27.498Z,9.82
2022-11-06T12:22:59.831Z,9.70
2022-11-06T12:25:35.397Z,10.88
2022-11-06T12:28:12.046Z,15.52
2022-11-06T12:30:45.181Z,10.73
2022-11-06T12:33:20.055Z,9.73
2022-11-06T12:35:54.207Z,14.35
2022-11-06T12:38:33.137Z,10.00
2022-11-06T12:41:07.714Z,7.32
2022-11-06T12:43:42.076Z,4.45
2022-11-06T12:46:23.080Z,5.45
2022-11-06T12:49:36.295Z,5.90
2022-11-06T12:52:22.824Z,5.35
2022-11-06T12:55:12.152Z,7.32
2022-11-06T12:57:54.216Z,9.48
2022-11-06T13:00:31.261Z,9.70
2022-11-06T13:03:20.594Z,10.05
2022-11-06T13:05:56.896Z,9.88
2022-11-06T13:08:35.119Z,10.50
2022-11-06T13:11:22.808Z,8.88
2022-11-06T13:14:05.275Z,10.15
2022-11-06T13:16:42.590Z,8.95
2022-11-06T13:19:21.903Z,8.40
2022-11-06T13:22:09.094Z,9.18
2022-11-06T13:24:45.827Z,13.00
2022-11-06T13:27:25.283Z,9.73
2022-11-06T13:30:00.378Z,12.90
2022-11-06T13:32:32.406Z,10.80
2022-11-06T13:35:04.287Z,10.18
2022-11-06T13:37:40.815Z,12.88
2022-11-06T13:40:22.047Z,12.85
2022-11-06T13:42:56.799Z,5.50
2022-11-06T13:45:27.252Z,18.25
2022-11-06T13:48:10.943Z,11.10
2022-11-06T13:50:48.697Z,12.32
2022-11-06T13:53:26.183Z,10.38
2022-11-06T13:56:05.688Z,14.32
2022-11-06T13:59:39.734Z,17.02
2022-11-06T14:02:27.493Z,21.95
2022-11-06T14:05:38.066Z,15.73
2022-11-06T14:08:09.350Z,16.35
2022-11-06T14:10:40.601Z,13.05
2022-11-06T14:13:09.558Z,16.52
2022-11-06T14:15:42.047Z,19.35
2022-11-06T14:18:22.259Z,17.80
2022-11-06T14:20:51.133Z,18.67
2022-11-06T14:23:48.035Z,17.13
2022-11-06T14:26:40.971Z,11.35
2022-11-06T14:29:54.255Z,10.63
2022-11-06T14:32:48.011Z,12.48
2022-11-06T14:35:50.678Z,15.88
2022-11-06T14:38:39.161Z,17.35
2022-11-06T14:41:48.147Z,20.83
2022-11-06T14:44:31.969Z,20.60
2022-11-06T14:47:04.000Z,27.38
2022-11-06T14:49:41.892Z,18.23
2022-11-06T14:52:14.977Z,17.85
2022-11-06T14:54:54.454Z,29.75
2022-11-06T14:57:45.106Z,22.33
2022-11-06T15:00:34.023Z,22.98
2022-11-06T15:03:04.444Z,24.95
2022-11-06T15:05:42.044Z,26.67
2022-11-06T15:08:11.602Z,32.00
2022-11-06T15:10:53.127Z,23.48
2022-11-06T15:13:27.485Z,27.35
2022-11-06T15:15:59.836Z,26.10
2022-11-06T15:18:32.888Z,24.35
2022-11-06T15:21:06.174Z,30.85
2022-11-06T15:23:42.244Z,17.15
2022-11-06T15:26:23.964Z,28.25
2022-11-06T15:29:05.606Z,16.67
2022-11-06T15:31:35.268Z,24.02
2022-11-06T15:34:07.517Z,25.20
2022-11-06T15:36:41.428Z,32.42
2022-11-06T15:39:24.441Z,47.40
2022-11-06T15:41:53.373Z,54.20
2022-11-06T15:44:24.541Z,48.20
2022-11-06T15:46:58.105Z,49.75
2022-11-06T15:49:27.352Z,50.17
2022-11-06T15:51:59.860Z,42.38
2022-11-06T15:54:38.686Z,42.80
2022-11-06T15:57:17.015Z,30.13
2022-11-06T15:59:45.992Z,44.05
2022-11-06T16:02:18.355Z,49.42
2022-11-06T16:04:48.342Z,39.20
2022-11-06T16:07:20.806Z,37.78
2022-11-06T16:09:51.600Z,45.50
2022-11-06T16:12:20.742Z,56.53
2022-11-06T16:14:49.636Z,57.35
2022-11-06T16:17:23.897Z,50.78
2022-11-06T16:19:55.252Z,37.13
2022-11-06T16:22:32.024Z,53.15
2022-11-06T16:25:04.032Z,58.28
2022-11-06T16:27:35.460Z,41.38
2022-11-06T16:30:06.608Z,46.67
2022-11-06T16:32:41.650Z,52.75
2022-11-06T16:35:31.720Z,53.45
2022-11-06T16:38:45.045Z,48.10
2022-11-06T16:41:36.496Z,52.30
2022-11-06T16:44:32.091Z,68.50
2022-11-06T16:47:15.864Z,56.40
2022-11-06T16:49:52.678Z,95.78
2022-11-06T16:52:26.880Z,62.15
2022-11-06T16:55:01.578Z,51.72
2022-11-06T16:57:33.611Z,33.45
2022-11-06T17:00:05.821Z,24.92
2022-11-06T17:02:38.771Z,25.90
2022-11-06T17:05:09.968Z,34.85
2022-11-06T17:07:39.480Z,52.42
2022-11-06T17:10:33.673Z,43.00
2022-11-06T17:13:12.376Z,41.33
2022-11-06T17:15:41.549Z,36.47
2022-11-06T17:18:16.306Z,39.25
2022-11-06T17:20:52.822Z,43.95
2022-11-06T17:23:22.526Z,41.55
2022-11-06T17:25:55.296Z,66.38
2022-11-06T17:28:24.183Z,56.08
2022-11-06T17:30:52.988Z,67.07
2022-11-06T17:33:21.830Z,54.25
2022-11-06T17:35:52.067Z,42.30
2022-11-06T17:38:20.936Z,45.97
2022-11-06T17:40:49.796Z,49.13
2022-11-06T17:43:20.153Z,49.35
2022-11-06T17:45:50.046Z,50.83
2022-11-06T17:48:19.132Z,51.80
2022-11-06T17:51:05.146Z,42.72
2022-11-06T17:53:34.008Z,49.95
2022-11-06T17:56:05.203Z,65.22
2022-11-06T17:58:35.751Z,41.85
2022-11-06T18:01:10.770Z,36.47
2022-11-06T18:03:44.701Z,36.97
2022-11-06T18:06:15.068Z,44.88
2022-11-06T18:08:44.737Z,56.47
2022-11-06T18:11:13.898Z,85.05
2022-11-06T18:13:45.410Z,102.82
2022-11-06T18:16:19.043Z,122.97
2022-11-06T18:18:48.204Z,112.50
2022-11-06T18:21:17.276Z,70.03
2022-11-06T18:23:46.161Z,66.10
2022-11-06T18:26:15.090Z,59.75
2022-11-06T18:28:45.311Z,70.05
2022-11-06T18:31:14.868Z,70.45
2022-11-06T18:33:43.706Z,76.50
2022-11-06T18:36:13.980Z,61.05
2022-11-06T18:38:43.732Z,58.45
2022-11-06T18:41:14.261Z,56.28
2022-11-06T18:43:43.589Z,49.60
2022-11-06T18:46:15.697Z,66.70
2022-11-06T18:48:44.767Z,68.25
2022-11-06T18:51:27.468Z,47.65
2022-11-06T18:54:04.940Z,47.90
2022-11-06T18:56:36.094Z,48.00
2022-11-06T18:59:06.304Z,36.17
2022-11-06T19:01:36.784Z,32.67
2022-11-06T19:04:06.251Z,31.80
2022-11-06T19:06:38.125Z,36.08
2022-11-06T19:09:08.025Z,31.15
2022-11-06T19:11:36.910Z,26.10
2022-11-06T19:14:06.174Z,22.85
2022-11-06T19:16:36.725Z,24.02
2022-11-06T19:19:07.103Z,28.10
2022-11-06T19:21:36.380Z,18.35
2022-11-06T19:24:06.595Z,24.15
2022-11-06T19:26:36.804Z,25.23
2022-11-06T19:29:07.591Z,31.83
2022-11-06T19:31:39.383Z,31.65
2022-11-06T19:34:09.717Z,31.02
2022-11-06T19:36:38.821Z,25.48
2022-11-06T19:39:08.599Z,27.17
2022-11-06T19:41:37.450Z,27.83
2022-11-06T19:44:06.714Z,25.42
2022-11-06T19:46:36.981Z,28.88
2022-11-06T19:49:06.777Z,37.63
2022-11-06T19:51:37.595Z,39.10
2022-11-06T19:54:07.666Z,46.92
2022-11-06T19:56:36.627Z,41.95
2022-11-06T19:59:25.697Z,41.47
2022-11-06T20:01:56.114Z,35.45
2022-11-06T20:04:25.063Z,35.42
2022-11-06T20:06:53.961Z,43.53
2022-11-06T20:09:22.781Z,34.50
2022-11-06T20:11:53.403Z,35.80
2022-11-06T20:14:22.762Z,45.50
2022-11-06T20:16:52.025Z,43.55
2022-11-06T20:19:22.504Z,32.30
2022-11-06T20:21:51.385Z,36.15
2022-11-06T20:24:20.266Z,34.80
2022-11-06T20:26:49.344Z,43.63
2022-11-06T20:29:18.265Z,43.83
2022-11-06T20:31:47.478Z,38.92
2022-11-06T20:34:16.487Z,62.08
2022-11-06T20:36:46.800Z,69.65
2022-11-06T20:39:16.998Z,68.45
2022-11-06T20:41:46.561Z,52.75
2022-11-06T20:44:15.420Z,49.15
2022-11-06T20:46:47.536Z,37.75
2022-11-06T20:49:16.889Z,54.45
2022-11-06T20:52:12.133Z,31.05
2022-11-06T20:54:36.516Z,20.25
2022-11-06T20:57:05.673Z,18.38
2022-11-06T20:59:34.488Z,23.95
2022-11-06T21:02:03.897Z,29.38
2022-11-06T21:04:32.778Z,32.78
2022-11-06T21:07:03.739Z,26.60
2022-11-06T21:09:32.851Z,23.88
2022-11-06T21:12:01.697Z,27.85
2022-11-06T21:14:30.683Z,36.30
2022-11-06T21:16:59.579Z,35.67
2022-11-06T21:19:28.379Z,42.42
2022-11-06T21:21:58.228Z,22.60
2022-11-06T21:24:28.447Z,23.23
2022-11-06T21:26:57.367Z,18.75
2022-11-06T21:29:26.600Z,26.58
2022-11-06T21:31:55.553Z,29.15
2022-11-06T21:34:24.519Z,28.27
2022-11-06T21:36:56.906Z,32.83
2022-11-06T21:39:35.638Z,33.13
2022-11-06T21:42:05.426Z,39.38
2022-11-06T21:44:34.230Z,37.95
2022-11-06T21:47:03.841Z,42.53
2022-11-06T21:49:32.624Z,39.13
2022-11-06T21:52:26.468Z,35.17
2022-11-06T21:55:15.896Z,31.50
2022-11-06T21:57:44.776Z,33.67
2022-11-06T22:00:14.984Z,39.72
2022-11-06T22:02:44.145Z,29.63
2022-11-06T22:05:13.085Z,34.47
2022-11-06T22:07:41.957Z,45.53
2022-11-06T22:10:12.415Z,40.17
2022-11-06T22:12:41.337Z,40.42
2022-11-06T22:15:10.963Z,38.25
2022-11-06T22:17:40.061Z,52.92
2022-11-06T22:20:09.953Z,37.42
2022-11-06T22:22:38.904Z,47.15
2022-11-06T22:25:08.578Z,56.58
2022-11-06T22:27:41.038Z,40.50
2022-11-06T22:30:11.496Z,42.25
2022-11-06T22:32:40.339Z,49.88
2022-11-06T22:35:09.916Z,39.60
2022-11-06T22:37:38.784Z,45.85
2022-11-06T22:40:09.073Z,34.05
2022-11-06T22:42:39.282Z,51.83
2022-11-06T22:45:09.217Z,56.80
2022-11-06T22:47:38.229Z,48.13
2022-11-06T22:50:08.031Z,45.13
2022-11-06T22:52:36.886Z,39.33
2022-11-06T22:55:06.348Z,37.10
2022-11-06T22:57:35.175Z,42.00
2022-11-06T23:00:06.574Z,34.90
2022-11-06T23:02:35.673Z,27.60
2022-11-06T23:05:04.514Z,37.83
2022-11-06T23:07:33.353Z,35.05
2022-11-06T23:10:02.148Z,29.02
2022-11-06T23:12:31.106Z,39.15
2022-11-06T23:14:59.919Z,32.60
2022-11-06T23:17:30.881Z,39.65
2022-11-06T23:19:59.747Z,35.35
2022-11-06T23:22:37.610Z,31.23
2022-11-06T23:25:08.300Z,40.67
2022-11-06T23:27:38.091Z,38.13
2022-11-06T23:30:08.156Z,31.70
2022-11-06T23:32:39.980Z,32.42
2022-11-06T23:35:13.448Z,31.27
2022-11-06T23:37:43.604Z,43.90
2022-11-06T23:40:13.449Z,33.17
2022-11-06T23:42:43.373Z,47.53
2022-11-06T23:45:30.468Z,29.48
2022-11-06T23:48:05.876Z,33.47
2022-11-06T23:50:37.157Z,32.10
2022-11-06T23:53:06.110Z,34.13
2022-11-06T23:55:34.932Z,36.90
2022-11-06T23:58:03.746Z,40.92
